createdAt,value
2023-02-08T00:01:48.534Z,-3.48
2023-02-08T00:06:50.380Z,-3.52
2023-02-08T00:11:51.819Z,-3.56
2023-02-08T00:16:53.284Z,-3.60
2023-02-08T00:21:54.723Z,-3.61
2023-02-08T00:26:56.154Z,-3.62
2023-02-08T00:31:57.654Z,-3.60
2023-02-08T00:36:59.096Z,-3.54
2023-02-08T00:42:00.613Z,-3.50
2023-02-08T00:47:02.064Z,-3.53
2023-02-08T00:52:03.515Z,-3.54
2023-02-08T00:57:04.956Z,-3.53
2023-02-08T01:02:06.805Z,-3.55
2023-02-08T01:07:08.499Z,-3.55
2023-02-08T01:12:10.537Z,-3.55
2023-02-08T01:17:12.079Z,-3.58
2023-02-08T01:22:13.588Z,-3.59
2023-02-08T01:27:15.001Z,-3.58
2023-02-08T01:32:16.432Z,-3.55
2023-02-08T01:37:17.959Z,-3.53
2023-02-08T01:42:19.399Z,-3.52
2023-02-08T01:47:21.395Z,-3.51
2023-02-08T01:52:28.643Z,-3.51
2023-02-08T01:57:31.562Z,-3.54
2023-02-08T02:02:35.179Z,-3.56
2023-02-08T02:07:37.033Z,-3.59
2023-02-08T02:12:40.508Z,-3.58
2023-02-08T02:17:42.227Z,-3.56
2023-02-08T02:23:05.625Z,-3.51
2023-02-08T02:28:16.200Z,-3.50
2023-02-08T02:33:59.679Z,-3.55
2023-02-08T02:39:41.442Z,-3.61
2023-02-08T02:45:01.182Z,-3.64
2023-02-08T02:50:19.133Z,-3.63
2023-02-08T02:55:24.895Z,-3.58
2023-02-08T03:00:28.584Z,-3.56
2023-02-08T03:05:30.422Z,-3.57
2023-02-08T03:10:54.531Z,-3.57
2023-02-08T03:16:22.134Z,-3.54
2023-02-08T03:21:29.561Z,-3.52
2023-02-08T03:26:41.198Z,-3.50
2023-02-08T03:31:53.981Z,-3.48
2023-02-08T03:37:01.679Z,-3.44
2023-02-08T03:42:11.453Z,-3.46
2023-02-08T03:47:23.449Z,-3.51
2023-02-08T03:52:26.475Z,-3.54
2023-02-08T03:57:35.096Z,-3.62
2023-02-08T04:02:43.331Z,-3.83
2023-02-08T04:07:44.927Z,-4.00
2023-02-08T04:12:48.492Z,-4.09
2023-02-08T04:17:49.967Z,-4.16
2023-02-08T04:22:51.450Z,-4.18
2023-02-08T04:27:53.364Z,-4.20
2023-02-08T04:32:54.865Z,-4.13
2023-02-08T04:37:56.325Z,-4.08
2023-02-08T04:42:57.817Z,-4.04
2023-02-08T04:48:01.555Z,-4.02
2023-02-08T04:53:03.225Z,-4.02
2023-02-08T04:58:04.903Z,-4.03
2023-02-08T05:03:06.340Z,-4.05
2023-02-08T05:08:07.979Z,-4.07
2023-02-08T05:13:09.394Z,-4.14
2023-02-08T05:18:10.821Z,-4.22
2023-02-08T05:23:12.302Z,-4.29
2023-02-08T05:28:13.755Z,-4.27
2023-02-08T05:33:15.771Z,-4.24
2023-02-08T05:38:17.335Z,-4.23
2023-02-08T05:43:18.810Z,-4.20
2023-02-08T05:48:20.381Z,-4.19
2023-02-08T05:53:21.844Z,-4.23
2023-02-08T05:58:23.982Z,-4.18
2023-02-08T06:03:25.639Z,-4.16
2023-02-08T06:08:27.712Z,-4.21
2023-02-08T06:13:29.228Z,-4.23
2023-02-08T06:18:30.651Z,-4.29
2023-02-08T06:23:32.124Z,-4.36
2023-02-08T06:28:33.619Z,-4.43
2023-02-08T06:33:35.435Z,-4.45
2023-02-08T06:38:36.923Z,-4.43
2023-02-08T06:43:38.970Z,-4.42
2023-02-08T06:48:40.418Z,-4.41
2023-02-08T06:53:41.883Z,-4.33
2023-02-08T06:58:43.356Z,-4.23
2023-02-08T07:03:44.852Z,-4.11
2023-02-08T07:08:47.464Z,-4.01
2023-02-08T07:13:54.442Z,-3.98
2023-02-08T07:18:55.873Z,-3.93
2023-02-08T07:23:57.323Z,-3.84
2023-02-08T07:28:58.843Z,-3.75
2023-02-08T07:34:00.265Z,-3.67
2023-02-08T07:39:02.420Z,-3.61
2023-02-08T07:44:04.071Z,-3.58
2023-02-08T07:49:05.531Z,-3.47
2023-02-08T07:54:07.004Z,-3.37
2023-02-08T07:59:08.803Z,-3.25
2023-02-08T08:04:10.504Z,-3.12
2023-02-08T08:09:12.193Z,-3.00
2023-02-08T08:14:13.697Z,-2.93
2023-02-08T08:19:15.129Z,-2.87
2023-02-08T08:24:16.624Z,-2.80
2023-02-08T08:29:18.082Z,-2.75
2023-02-08T08:34:19.556Z,-2.67
2023-02-08T08:39:20.988Z,-2.60
2023-02-08T08:44:22.590Z,-2.56
2023-02-08T08:49:25.367Z,-2.50
2023-02-08T08:54:26.833Z,-2.38
2023-02-08T08:59:28.436Z,-2.29
2023-02-08T09:04:30.126Z,-2.16
2023-02-08T09:09:31.596Z,-2.05
2023-02-08T09:14:33.525Z,-1.93
2023-02-08T09:19:34.983Z,-1.80
2023-02-08T09:24:36.504Z,-1.67
2023-02-08T09:29:37.938Z,-1.55
2023-02-08T09:34:39.492Z,-1.40
2023-02-08T09:39:41.039Z,-1.27
2023-02-08T09:45:01.438Z,-1.14
2023-02-08T09:50:27.592Z,-1.02
2023-02-08T09:55:37.095Z,-0.88
2023-02-08T10:00:45.870Z,-0.75
2023-02-08T10:05:48.020Z,-0.59
2023-02-08T10:11:05.314Z,-0.44
2023-02-08T10:16:38.111Z,-0.27
2023-02-08T10:22:09.365Z,-0.09
2023-02-08T10:27:16.740Z,0.06
2023-02-08T10:32:39.690Z,0.21
2023-02-08T10:37:43.598Z,0.29
2023-02-08T10:42:49.393Z,0.34
2023-02-08T10:48:03.208Z,0.45
2023-02-08T10:53:05.348Z,0.53
2023-02-08T10:58:07.554Z,0.59
2023-02-08T11:03:21.314Z,0.61
2023-02-08T11:08:25.214Z,0.61
2023-02-08T11:13:36.371Z,0.60
2023-02-08T11:18:41.718Z,0.65
2023-02-08T11:23:43.446Z,0.70
2023-02-08T11:28:58.012Z,0.71
2023-02-08T11:34:02.584Z,0.72
2023-02-08T11:39:16.487Z,0.71
2023-02-08T11:44:33.691Z,0.76
2023-02-08T11:49:41.092Z,0.77
2023-02-08T11:54:43.249Z,0.82
2023-02-08T11:59:49.139Z,0.94
2023-02-08T12:04:51.153Z,0.98
2023-02-08T12:10:23.543Z,1.04
2023-02-08T12:15:58.237Z,1.10
2023-02-08T12:21:14.597Z,1.19
2023-02-08T12:26:49.327Z,1.27
2023-02-08T12:32:06.808Z,1.35
2023-02-08T12:37:35.803Z,1.39
2023-02-08T12:43:05.618Z,1.45
2023-02-08T12:48:31.632Z,1.47
2023-02-08T12:54:02.978Z,1.49
2023-02-08T12:59:13.394Z,1.50
2023-02-08T13:04:22.343Z,1.56
2023-02-08T13:09:34.436Z,1.60
2023-02-08T13:14:58.454Z,1.65
2023-02-08T13:20:06.947Z,1.67
2023-02-08T13:25:27.691Z,1.68
2023-02-08T13:30:29.451Z,1.83
2023-02-08T13:35:32.309Z,3.21
2023-02-08T13:40:38.304Z,4.82
2023-02-08T13:45:44.359Z,5.81
2023-02-08T13:50:47.758Z,5.81
2023-02-08T13:55:57.366Z,5.18
2023-02-08T14:01:01.366Z,4.28
2023-02-08T14:06:18.059Z,3.37
2023-02-08T14:11:42.197Z,2.70
2023-02-08T14:16:45.965Z,2.29
2023-02-08T14:22:05.937Z,1.95
2023-02-08T14:27:10.950Z,1.68
2023-02-08T14:32:24.007Z,1.51
2023-02-08T14:37:32.318Z,1.41
2023-02-08T14:42:52.626Z,1.24
2023-02-08T14:47:58.658Z,1.12
2023-02-08T14:53:07.694Z,1.02
2023-02-08T14:58:15.805Z,0.97
2023-02-08T15:03:18.820Z,0.97
2023-02-08T15:08:20.993Z,0.92
2023-02-08T15:13:24.795Z,0.86
2023-02-08T15:18:31.348Z,0.83
2023-02-08T15:23:33.168Z,0.80
2023-02-08T15:28:36.306Z,0.69
2023-02-08T15:33:39.365Z,0.57
2023-02-08T15:38:44.742Z,0.50
2023-02-08T15:43:46.293Z,0.42
2023-02-08T15:48:50.009Z,0.35
2023-02-08T15:53:54.620Z,0.26
2023-02-08T15:58:59.190Z,0.14
2023-02-08T16:04:06.092Z,0.03
2023-02-08T16:09:14.286Z,-0.07
2023-02-08T16:14:19.219Z,-0.13
2023-02-08T16:19:31.028Z,-0.18
2023-02-08T16:24:32.585Z,-0.21
2023-02-08T16:29:39.494Z,-0.31
2023-02-08T16:34:41.197Z,-0.39
2023-02-08T16:39:46.778Z,-0.48
2023-02-08T16:45:00.743Z,-0.52
2023-02-08T16:50:02.273Z,-0.61
2023-02-08T16:55:04.403Z,-0.66
2023-02-08T17:00:26.804Z,-0.73
2023-02-08T17:05:36.552Z,-0.77
2023-02-08T17:10:38.607Z,-0.81
2023-02-08T17:15:40.601Z,-0.86
2023-02-08T17:20:43.069Z,-0.88
2023-02-08T17:25:44.961Z,-0.91
2023-02-08T17:30:48.341Z,-0.93
2023-02-08T17:35:51.926Z,-0.94
2023-02-08T17:40:53.365Z,-0.98
2023-02-08T17:45:54.914Z,-1.00
2023-02-08T17:50:56.530Z,-1.03
2023-02-08T17:55:57.950Z,-1.04
2023-02-08T18:00:59.384Z,-1.09
2023-02-08T18:06:01.695Z,-1.12
2023-02-08T18:11:08.374Z,-1.13
2023-02-08T18:16:16.354Z,-1.19
2023-02-08T18:21:20.130Z,-1.25
2023-02-08T18:26:23.011Z,-1.31
2023-02-08T18:31:25.378Z,-1.34
2023-02-08T18:36:26.884Z,-1.36
2023-02-08T18:41:30.119Z,-1.43
2023-02-08T18:46:32.228Z,-1.47
2023-02-08T18:51:33.872Z,-1.50
2023-02-08T18:56:35.329Z,-1.50
2023-02-08T19:01:37.484Z,-1.48
2023-02-08T19:06:38.984Z,-1.48
2023-02-08T19:11:40.867Z,-1.48
2023-02-08T19:16:43.096Z,-1.49
2023-02-08T19:21:44.808Z,-1.51
2023-02-08T19:26:46.723Z,-1.54
2023-02-08T19:31:50.188Z,-1.56
2023-02-08T19:36:54.134Z,-1.61
2023-02-08T19:41:58.422Z,-1.72
2023-02-08T19:47:00.188Z,-1.79
2023-02-08T19:52:01.681Z,-1.83
2023-02-08T19:57:03.228Z,-1.84
2023-02-08T20:02:04.861Z,-1.84
2023-02-08T20:07:07.842Z,-1.81
2023-02-08T20:12:09.437Z,-1.83
2023-02-08T20:17:10.866Z,-1.83
2023-02-08T20:22:12.349Z,-1.84
2023-02-08T20:27:13.784Z,-1.88
2023-02-08T20:32:15.262Z,-1.93
2023-02-08T20:37:20.888Z,-1.95
2023-02-08T20:42:22.571Z,-1.99
2023-02-08T20:47:24.072Z,-2.04
2023-02-08T20:52:25.520Z,-2.05
2023-02-08T20:57:27.140Z,-2.03
2023-02-08T21:02:28.660Z,-2.01
2023-02-08T21:07:30.129Z,-2.01
2023-02-08T21:12:33.318Z,-2.01
2023-02-08T21:17:35.888Z,-2.04
2023-02-08T21:22:37.528Z,-2.07
2023-02-08T21:27:39.176Z,-2.08
2023-02-08T21:32:41.717Z,-2.11
2023-02-08T21:37:43.219Z,-2.12
2023-02-08T21:42:44.692Z,-2.10
2023-02-08T21:47:46.171Z,-2.08
2023-02-08T21:53:06.180Z,-2.08
2023-02-08T21:58:07.615Z,-2.09
2023-02-08T22:03:09.110Z,-2.09
2023-02-08T22:08:12.513Z,-2.10
2023-02-08T22:13:13.990Z,-2.16
2023-02-08T22:18:15.684Z,-2.29
2023-02-08T22:23:17.111Z,-2.42
2023-02-08T22:28:18.627Z,-2.47
2023-02-08T22:33:20.146Z,-2.51
2023-02-08T22:38:22.857Z,-2.55
2023-02-08T22:43:24.344Z,-2.56
2023-02-08T22:48:26.992Z,-2.57
2023-02-08T22:53:28.525Z,-2.54
2023-02-08T22:58:30.198Z,-2.50
2023-02-08T23:03:31.672Z,-2.47
2023-02-08T23:08:33.546Z,-2.41
2023-02-08T23:13:35.130Z,-2.36
2023-02-08T23:18:36.594Z,-2.35
2023-02-08T23:23:39.035Z,-2.38
2023-02-08T23:28:40.490Z,-2.32
2023-02-08T23:33:41.981Z,-2.24
2023-02-08T23:38:43.794Z,-2.19
2023-02-08T23:43:45.263Z,-2.13
2023-02-08T23:48:47.746Z,-2.07
2023-02-08T23:53:50.506Z,-2.00
2023-02-08T23:58:54.736Z,-2.01
